createdAt,value
2017-07-01T00:00:48.656Z,95.5
2017-07-01T00:01:50.643Z,95.5
2017-07-01T00:02:52.976Z,95.5
2017-07-01T00:03:54.980Z,95.5
2017-07-01T00:04:56.977Z,95.5
2017-07-01T00:05:58.979Z,95.5
2017-07-01T00:07:00.974Z,95.4
2017-07-01T00:08:02.975Z,95.3
2017-07-01T00:09:04.974Z,95.2
2017-07-01T00:10:06.969Z,95.2
2017-07-01T00:11:08.984Z,95.3
2017-07-01T00:12:11.026Z,95.3
2017-07-01T00:13:13.022Z,95.3
2017-07-01T00:14:15.022Z,95.4
2017-07-01T00:15:17.353Z,95.3
2017-07-01T00:16:20.032Z,95.3
2017-07-01T00:17:22.027Z,95.4
2017-07-01T00:18:24.018Z,95.4
2017-07-01T00:19:26.109Z,95.4
2017-07-01T00:20:28.108Z,95.5
2017-07-01T00:21:30.110Z,95.4
2017-07-01T00:22:32.441Z,95.4
2017-07-01T00:23:34.440Z,95.5
2017-07-01T00:24:36.433Z,95.4
2017-07-01T00:25:38.437Z,95.5
2017-07-01T00:26:40.462Z,95.4
2017-07-01T00:27:42.811Z,95.4
2017-07-01T00:28:45.138Z,95.4
2017-07-01T00:29:47.129Z,95.4
2017-07-01T00:30:49.119Z,95.4
2017-07-01T00:31:51.457Z,95.5
2017-07-01T00:32:53.461Z,95.6
2017-07-01T00:33:55.463Z,95.6
2017-07-01T00:34:58.125Z,95.6
2017-07-01T00:36:00.120Z,95.6
2017-07-01T00:37:02.134Z,95.6
2017-07-01T00:38:04.819Z,95.6
2017-07-01T00:39:07.159Z,95.7
2017-07-01T00:40:09.158Z,95.7
2017-07-01T00:41:11.176Z,95.7
2017-07-01T00:42:13.165Z,95.7
2017-07-01T00:43:15.165Z,95.7
2017-07-01T00:44:17.173Z,95.6
2017-07-01T00:45:19.176Z,95.6
2017-07-01T00:46:21.201Z,95.6
2017-07-01T00:47:23.206Z,95.6
2017-07-01T00:48:25.888Z,95.6
2017-07-01T00:49:27.885Z,95.6
2017-07-01T00:50:29.880Z,95.6
2017-07-01T00:51:31.887Z,95.6
2017-07-01T00:52:33.884Z,95.6
2017-07-01T00:53:35.888Z,95.6
2017-07-01T00:54:38.219Z,95.6
2017-07-01T00:55:40.249Z,95.6
2017-07-01T00:56:42.245Z,95.6
2017-07-01T00:57:44.246Z,95.6
2017-07-01T00:58:46.923Z,95.5
2017-07-01T00:59:48.916Z,95.5
2017-07-01T01:00:50.928Z,95.5
2017-07-01T01:01:52.918Z,95.5
2017-07-01T01:02:54.914Z,95.5
2017-07-01T01:03:57.558Z,95.6
2017-07-01T01:05:00.233Z,95.6
2017-07-01T01:06:02.908Z,95.6
2017-07-01T01:07:04.901Z,95.6
2017-07-01T01:08:06.908Z,95.6
2017-07-01T01:09:08.907Z,95.6
2017-07-01T01:10:10.896Z,95.6
2017-07-01T01:11:12.897Z,95.5
2017-07-01T01:12:14.888Z,95.6
2017-07-01T01:13:16.894Z,95.5
2017-07-01T01:14:18.898Z,95.5
2017-07-01T01:15:20.899Z,95.5
2017-07-01T01:16:23.230Z,95.5
2017-07-01T01:17:25.232Z,95.5
2017-07-01T01:18:27.229Z,95.5
2017-07-01T01:19:29.243Z,95.5
2017-07-01T01:20:31.247Z,95.6
2017-07-01T01:21:33.252Z,95.6
2017-07-01T01:22:35.240Z,95.6
2017-07-01T01:23:37.585Z,95.6
2017-07-01T01:24:39.586Z,95.5
2017-07-01T01:25:41.588Z,95.4
2017-07-01T01:26:43.578Z,95.5
2017-07-01T01:27:45.580Z,95.4
2017-07-01T01:28:47.582Z,95.4
2017-07-01T01:29:49.570Z,95.5
2017-07-01T01:30:51.564Z,95.5
2017-07-01T01:31:53.582Z,95.5
2017-07-01T01:32:55.611Z,95.5
2017-07-01T01:33:57.599Z,95.5
2017-07-01T01:34:59.597Z,95.5
2017-07-01T01:36:01.936Z,95.5
2017-07-01T01:37:03.928Z,95.6
2017-07-01T01:38:05.930Z,95.5
2017-07-01T01:39:07.921Z,95.5
2017-07-01T01:40:09.923Z,95.4
2017-07-01T01:41:11.928Z,95.4
2017-07-01T01:42:13.915Z,95.5
2017-07-01T01:43:15.926Z,95.4
2017-07-01T01:44:17.923Z,95.4
2017-07-01T01:45:19.968Z,95.4
2017-07-01T01:46:21.964Z,95.5
2017-07-01T01:47:24.307Z,95.5
2017-07-01T01:48:26.319Z,95.5
2017-07-01T01:49:28.673Z,95.5
2017-07-01T01:50:30.677Z,95.5
2017-07-01T01:51:32.674Z,95.4
2017-07-01T01:52:34.667Z,95.4
2017-07-01T01:53:36.667Z,95.4
2017-07-01T01:54:38.668Z,95.5
2017-07-01T01:55:41.018Z,95.4
2017-07-01T01:56:43.026Z,95.3
2017-07-01T01:57:45.350Z,95.3
2017-07-01T01:58:47.351Z,95.3
2017-07-01T01:59:49.354Z,95.3
2017-07-01T02:00:51.346Z,95.4
2017-07-01T02:01:53.681Z,95.4
2017-07-01T02:02:55.691Z,95.4
2017-07-01T02:03:57.693Z,95.6
2017-07-01T02:04:59.683Z,95.5
2017-07-01T02:06:02.022Z,95.4
2017-07-01T02:07:04.028Z,95.4
2017-07-01T02:08:06.028Z,95.5
2017-07-01T02:09:08.029Z,95.4
2017-07-01T02:10:10.368Z,95.5
2017-07-01T02:11:12.363Z,95.4
2017-07-01T02:12:14.703Z,95.3
2017-07-01T02:13:16.703Z,95.4
2017-07-01T02:14:18.690Z,95.4
2017-07-01T02:15:21.035Z,95.5
2017-07-01T02:16:23.033Z,95.4
2017-07-01T02:17:25.036Z,95.3
2017-07-01T02:18:27.048Z,95.3
2017-07-01T02:19:29.380Z,95.3
2017-07-01T02:20:31.386Z,95.4
2017-07-01T02:21:33.378Z,95.4
2017-07-01T02:22:35.421Z,95.4
2017-07-01T02:23:37.765Z,95.4
2017-07-01T02:24:39.761Z,95.2
2017-07-01T02:25:42.085Z,95.2
2017-07-01T02:26:44.083Z,95.3
2017-07-01T02:27:46.421Z,95.3
2017-07-01T02:28:48.420Z,95.2
2017-07-01T02:29:50.411Z,95.1
2017-07-01T02:30:52.421Z,95.2
2017-07-01T02:31:54.422Z,95.3
2017-07-01T02:32:56.422Z,95.2
2017-07-01T02:33:58.428Z,95.3
2017-07-01T02:35:00.773Z,95.3
2017-07-01T02:36:02.778Z,95.3
2017-07-01T02:37:04.779Z,95.4
2017-07-01T02:38:06.772Z,95.4
2017-07-01T02:39:08.785Z,95.4
2017-07-01T02:40:10.780Z,95.4
2017-07-01T02:41:12.786Z,95.4
2017-07-01T02:42:14.786Z,95.4
2017-07-01T02:43:16.792Z,95.3
2017-07-01T02:44:19.130Z,95.3
2017-07-01T02:45:21.124Z,95.4
2017-07-01T02:46:23.126Z,95.3
2017-07-01T02:47:25.145Z,95.2
2017-07-01T02:48:27.149Z,95.3
2017-07-01T02:49:29.488Z,95.2
2017-07-01T02:50:31.484Z,95.2
2017-07-01T02:51:33.823Z,95.3
2017-07-01T02:52:35.833Z,95.3
2017-07-01T02:53:38.171Z,95.4
2017-07-01T02:54:40.182Z,95.4
2017-07-01T02:55:42.170Z,95.4
2017-07-01T02:56:44.164Z,95.5
2017-07-01T02:57:46.513Z,95.4
2017-07-01T02:58:48.517Z,95.3
2017-07-01T02:59:50.518Z,95.3
2017-07-01T03:00:52.518Z,95.4
2017-07-01T03:01:54.518Z,95.5
2017-07-01T03:02:56.859Z,95.4
2017-07-01T03:03:58.848Z,95.2
2017-07-01T03:05:00.850Z,95.3
2017-07-01T03:06:02.857Z,95.3
2017-07-01T03:07:04.853Z,95.3
2017-07-01T03:08:06.859Z,95.2
2017-07-01T03:09:08.860Z,95.2
2017-07-01T03:10:10.871Z,95.3
2017-07-01T03:11:12.863Z,95.2
2017-07-01T03:12:14.870Z,95.2
2017-07-01T03:13:17.227Z,95.4
2017-07-01T03:14:19.560Z,95.4
2017-07-01T03:15:21.907Z,95.5
2017-07-01T03:16:23.906Z,95.4
2017-07-01T03:17:25.908Z,95.4
2017-07-01T03:18:28.252Z,95.3
2017-07-01T03:19:30.245Z,95.4
2017-07-01T03:20:32.254Z,95.3
2017-07-01T03:21:34.256Z,95.2
2017-07-01T03:22:36.312Z,95.2
2017-07-01T03:23:38.316Z,95.3
2017-07-01T03:24:40.309Z,95.3
2017-07-01T03:25:42.319Z,95.3
2017-07-01T03:26:44.321Z,95.4
2017-07-01T03:27:46.650Z,95.3
2017-07-01T03:28:48.657Z,95.4
2017-07-01T03:29:50.656Z,95.4
2017-07-01T03:30:52.999Z,95.3
2017-07-01T03:31:55.024Z,95.3
2017-07-01T03:32:57.023Z,95.4
2017-07-01T03:33:59.362Z,95.5
2017-07-01T03:35:01.365Z,95.5
2017-07-01T03:36:04.042Z,95.6
2017-07-01T03:37:06.050Z,95.6
2017-07-01T03:38:08.043Z,95.6
2017-07-01T03:39:10.346Z,95.6
2017-07-01T03:40:12.344Z,95.6
2017-07-01T03:41:14.348Z,95.6
2017-07-01T03:42:16.347Z,95.6
2017-07-01T03:43:18.352Z,95.7
2017-07-01T03:44:20.678Z,95.6
2017-07-01T03:45:23.018Z,95.7
2017-07-01T03:46:25.355Z,95.7
2017-07-01T03:47:27.358Z,95.7
2017-07-01T03:48:29.354Z,95.6
2017-07-01T03:49:31.688Z,95.6
2017-07-01T03:50:34.048Z,95.6
2017-07-01T03:51:36.029Z,95.6
2017-07-01T03:52:38.037Z,95.6
2017-07-01T03:53:40.052Z,95.6
2017-07-01T03:54:42.385Z,95.6
2017-07-01T03:55:44.387Z,95.5
2017-07-01T03:56:46.387Z,95.4
2017-07-01T03:57:48.388Z,95.4
2017-07-01T03:58:50.395Z,95.4
2017-07-01T03:59:52.397Z,95.5
2017-07-01T04:00:54.407Z,95.6
2017-07-01T04:01:56.406Z,95.6
2017-07-01T04:02:58.407Z,95.6
2017-07-01T04:04:00.405Z,95.6
2017-07-01T04:05:02.414Z,95.5
2017-07-01T04:06:04.417Z,95.5
2017-07-01T04:07:06.415Z,95.5
2017-07-01T04:08:08.407Z,95.6
2017-07-01T04:09:10.409Z,95.6
2017-07-01T04:10:12.413Z,95.6
2017-07-01T04:11:14.424Z,95.6
2017-07-01T04:12:16.426Z,95.7
2017-07-01T04:13:18.431Z,95.7
2017-07-01T04:14:20.432Z,95.6
2017-07-01T04:15:22.432Z,95.5
2017-07-01T04:16:24.433Z,95.6
2017-07-01T04:17:26.447Z,95.6
2017-07-01T04:18:28.800Z,95.5
2017-07-01T04:19:30.795Z,95.6
2017-07-01T04:20:32.793Z,95.6
2017-07-01T04:21:34.795Z,95.6
2017-07-01T04:22:36.791Z,95.6
2017-07-01T04:23:38.797Z,95.6
2017-07-01T04:24:40.854Z,95.5
2017-07-01T04:25:43.186Z,95.6
2017-07-01T04:26:45.516Z,95.6
2017-07-01T04:27:47.856Z,95.6
2017-07-01T04:28:49.880Z,95.7
2017-07-01T04:29:51.889Z,95.8
2017-07-01T04:30:54.232Z,95.7
2017-07-01T04:31:56.231Z,95.7
2017-07-01T04:32:58.281Z,95.7
2017-07-01T04:34:00.270Z,95.8
2017-07-01T04:35:02.614Z,95.7
2017-07-01T04:36:04.620Z,95.6
2017-07-01T04:37:06.628Z,95.6
2017-07-01T04:38:08.626Z,95.7
2017-07-01T04:39:10.623Z,95.6
2017-07-01T04:40:12.629Z,95.6
2017-07-01T04:41:14.978Z,95.5
2017-07-01T04:42:16.981Z,95.5
2017-07-01T04:43:18.976Z,95.5
2017-07-01T04:44:21.307Z,95.5
2017-07-01T04:45:23.317Z,95.5
2017-07-01T04:46:25.314Z,95.6
2017-07-01T04:47:27.323Z,95.6
2017-07-01T04:48:29.326Z,95.6
2017-07-01T04:49:31.333Z,95.5
2017-07-01T04:50:33.336Z,95.5
2017-07-01T04:51:35.335Z,95.6
2017-07-01T04:52:37.679Z,95.6
2017-07-01T04:53:39.683Z,95.6
2017-07-01T04:54:41.680Z,95.6
2017-07-01T04:55:43.688Z,95.5
2017-07-01T04:56:45.688Z,95.6
2017-07-01T04:57:47.687Z,95.7
2017-07-01T04:58:49.687Z,95.6
2017-07-01T04:59:51.691Z,95.6
2017-07-01T05:00:53.691Z,95.5
2017-07-01T05:01:55.696Z,95.5
2017-07-01T05:02:57.688Z,95.5
2017-07-01T05:03:59.681Z,95.5
2017-07-01T05:05:01.695Z,95.5
2017-07-01T05:06:03.697Z,95.6
2017-07-01T05:07:05.694Z,95.6
2017-07-01T05:08:07.700Z,95.5
2017-07-01T05:09:09.708Z,95.4
2017-07-01T05:10:11.707Z,95.5
2017-07-01T05:11:13.710Z,95.6
2017-07-01T05:12:15.717Z,95.5
2017-07-01T05:13:17.730Z,95.5
2017-07-01T05:14:20.072Z,95.5
2017-07-01T05:15:22.070Z,95.5
2017-07-01T05:16:24.081Z,95.6
2017-07-01T05:17:26.081Z,95.5
2017-07-01T05:18:28.082Z,95.5
2017-07-01T05:19:30.085Z,95.5
2017-07-01T05:20:32.081Z,95.6
2017-07-01T05:21:34.084Z,95.7
2017-07-01T05:22:36.076Z,95.6
2017-07-01T05:23:38.081Z,95.7
2017-07-01T05:24:40.090Z,95.8
2017-07-01T05:25:42.088Z,95.8
2017-07-01T05:26:44.092Z,95.8
2017-07-01T05:27:46.099Z,95.8
2017-07-01T05:28:48.108Z,95.9
2017-07-01T05:29:50.106Z,95.9
2017-07-01T05:30:52.107Z,96
2017-07-01T05:31:54.118Z,95.9
2017-07-01T05:32:56.117Z,95.9
2017-07-01T05:33:58.122Z,95.8
2017-07-01T05:35:00.125Z,95.8
2017-07-01T05:36:02.119Z,95.8
2017-07-01T05:37:04.134Z,95.9
2017-07-01T05:38:06.466Z,96
2017-07-01T05:39:08.830Z,96
2017-07-01T05:40:10.832Z,96
2017-07-01T05:41:12.836Z,96
2017-07-01T05:42:14.842Z,96.1
2017-07-01T05:43:16.840Z,96.1
2017-07-01T05:44:18.838Z,96
2017-07-01T05:45:20.838Z,95.9
2017-07-01T05:46:22.848Z,95.8
2017-07-01T05:47:24.856Z,95.8
2017-07-01T05:48:26.860Z,95.8
2017-07-01T05:49:28.866Z,95.8
2017-07-01T05:50:30.867Z,95.9
2017-07-01T05:51:32.859Z,95.9
2017-07-01T05:52:34.867Z,95.9
2017-07-01T05:53:36.876Z,95.9
2017-07-01T05:54:39.227Z,95.9
2017-07-01T05:55:41.237Z,95.8
2017-07-01T05:56:43.569Z,95.8
2017-07-01T05:57:45.573Z,95.9
2017-07-01T05:59:19.731Z,95.9
2017-07-01T06:00:21.814Z,95.8
2017-07-01T06:01:23.879Z,95.8
2017-07-01T06:02:25.950Z,95.8
2017-07-01T06:03:28.018Z,95.6
2017-07-01T06:04:30.093Z,95.7
2017-07-01T06:05:32.144Z,95.8
2017-07-01T06:06:34.227Z,95.8
2017-07-01T06:07:36.278Z,95.9
2017-07-01T06:08:38.361Z,95.9
2017-07-01T06:09:40.417Z,95.8
2017-07-01T06:10:42.475Z,95.9
2017-07-01T06:11:44.542Z,96
2017-07-01T06:12:46.608Z,96
2017-07-01T06:13:48.683Z,96
2017-07-01T06:14:50.757Z,96
2017-07-01T06:15:52.800Z,95.9
2017-07-01T06:16:54.879Z,95.8
2017-07-01T06:17:56.954Z,95.9
2017-07-01T06:18:59.015Z,96
2017-07-01T06:20:01.075Z,96
2017-07-01T06:21:03.520Z,96.1
2017-07-01T06:22:05.918Z,96.1
2017-07-01T06:23:07.991Z,96.1
2017-07-01T06:24:10.067Z,96.1
2017-07-01T06:25:12.173Z,96.1
2017-07-01T06:26:14.233Z,96.1
2017-07-01T06:27:16.296Z,96
2017-07-01T06:28:18.375Z,95.9
2017-07-01T06:29:20.779Z,95.7
2017-07-01T06:30:22.830Z,95.9
2017-07-01T06:31:24.909Z,95.9
2017-07-01T06:32:26.979Z,96
2017-07-01T06:33:29.390Z,96
2017-07-01T06:34:31.703Z,95.9
2017-07-01T06:35:33.998Z,95.6
2017-07-01T06:36:36.639Z,95.6
2017-07-01T06:37:38.725Z,95.6
2017-07-01T06:38:40.787Z,95.5
2017-07-01T06:39:42.865Z,95.6
2017-07-01T06:40:44.922Z,95.6
2017-07-01T06:41:47.074Z,95.6
2017-07-01T06:42:49.272Z,95.6
2017-07-01T06:43:51.689Z,95.6
2017-07-01T06:44:54.114Z,95.6
2017-07-01T06:45:56.181Z,95.6
2017-07-01T06:46:58.224Z,95.6
2017-07-01T06:48:00.299Z,95.6
2017-07-01T06:49:02.368Z,95.6
2017-07-01T06:50:04.829Z,95.5
2017-07-01T06:51:06.937Z,95.6
2017-07-01T06:52:09.005Z,95.5
2017-07-01T06:53:11.400Z,95.6
2017-07-01T06:54:13.483Z,95.5
2017-07-01T06:55:15.538Z,95.5
2017-07-01T06:56:17.618Z,95.5
2017-07-01T06:57:19.778Z,95.6
2017-07-01T06:58:21.849Z,95.7
2017-07-01T06:59:23.910Z,95.8
2017-07-01T07:00:25.965Z,95.9
2017-07-01T07:01:28.059Z,95.9
2017-07-01T07:02:30.130Z,95.6
2017-07-01T07:03:32.177Z,95.6
2017-07-01T07:04:34.255Z,95.6
2017-07-01T07:05:36.318Z,95.6
2017-07-01T07:06:38.387Z,95.6
2017-07-01T07:07:40.449Z,95.7
2017-07-01T07:08:42.524Z,95.6
2017-07-01T07:09:44.604Z,95.8
2017-07-01T07:10:46.665Z,95.8
2017-07-01T07:11:48.732Z,95.8
2017-07-01T07:12:51.147Z,96
2017-07-01T07:13:53.206Z,96
2017-07-01T07:14:55.278Z,95.9
2017-07-01T07:15:57.337Z,96
2017-07-01T07:16:59.399Z,96
2017-07-01T07:18:01.474Z,96
2017-07-01T07:19:03.552Z,95.9
2017-07-01T07:20:05.629Z,95.9
2017-07-01T07:21:07.704Z,95.8
2017-07-01T07:22:10.216Z,95.9
2017-07-01T07:23:12.284Z,95.8
2017-07-01T07:24:14.384Z,95.8
2017-07-01T07:25:16.454Z,95.8
2017-07-01T07:26:18.534Z,95.8
2017-07-01T07:27:20.927Z,95.8
2017-07-01T07:28:22.988Z,95.8
2017-07-01T07:29:25.091Z,95.8
2017-07-01T07:30:27.148Z,95.8
2017-07-01T07:31:29.200Z,95.8
2017-07-01T07:32:31.273Z,95.8
2017-07-01T07:33:33.335Z,95.8
2017-07-01T07:34:35.401Z,95.8
2017-07-01T07:35:37.461Z,95.8
2017-07-01T07:36:39.547Z,95.8
2017-07-01T07:37:41.614Z,95.8
2017-07-01T07:38:44.038Z,95.8
2017-07-01T07:39:46.108Z,95.8
2017-07-01T07:40:48.174Z,95.8
2017-07-01T07:41:50.266Z,95.8
2017-07-01T07:42:52.325Z,95.8
2017-07-01T07:43:54.389Z,95.8
2017-07-01T07:44:56.471Z,95.8
2017-07-01T07:45:58.697Z,95.8
2017-07-01T07:47:01.438Z,95.8
2017-07-01T07:48:03.745Z,95.8
2017-07-01T07:49:05.811Z,95.8
2017-07-01T07:50:07.885Z,95.8
2017-07-01T07:51:10.134Z,95.8
2017-07-01T07:52:12.538Z,95.8
2017-07-01T07:53:14.850Z,95.8
2017-07-01T07:54:17.176Z,95.7
2017-07-01T07:55:19.262Z,95.5
2017-07-01T07:56:21.322Z,95.6
2017-07-01T07:57:23.389Z,95.7
2017-07-01T07:58:25.464Z,95.8
2017-07-01T07:59:27.516Z,95.8
2017-07-01T08:00:29.598Z,95.8
2017-07-01T08:01:31.652Z,95.8
2017-07-01T08:02:33.749Z,95.7
2017-07-01T08:03:35.812Z,95.5
2017-07-01T08:04:37.863Z,95.5
2017-07-01T08:05:39.935Z,95.4
2017-07-01T08:06:42.015Z,95.6
2017-07-01T08:07:44.084Z,95.8
2017-07-01T08:08:46.164Z,95.8
2017-07-01T08:09:48.233Z,95.8
2017-07-01T08:10:50.681Z,95.8
2017-07-01T08:11:52.746Z,95.8
2017-07-01T08:12:54.807Z,95.8
2017-07-01T08:13:57.215Z,95.8
2017-07-01T08:14:59.451Z,95.8
2017-07-01T08:16:01.825Z,95.8
2017-07-01T08:17:03.897Z,95.8
2017-07-01T08:18:05.955Z,95.9
2017-07-01T08:19:08.047Z,95.9
2017-07-01T08:20:10.450Z,95.9
2017-07-01T08:21:12.511Z,95.9
2017-07-01T08:22:14.583Z,95.9
2017-07-01T08:23:16.809Z,95.7
2017-07-01T08:24:19.146Z,95.7
2017-07-01T08:25:21.411Z,95.6
2017-07-01T08:26:23.742Z,95.6
2017-07-01T08:27:25.808Z,95.8
2017-07-01T08:28:27.871Z,95.8
2017-07-01T08:29:30.270Z,95.8
2017-07-01T08:30:32.351Z,95.8
2017-07-01T08:31:34.410Z,95.8
2017-07-01T08:32:36.484Z,95.8
2017-07-01T08:33:38.539Z,95.8
2017-07-01T08:34:40.945Z,95.8
2017-07-01T08:35:43.037Z,95.8
2017-07-01T08:36:45.086Z,95.9
2017-07-01T08:37:47.163Z,95.8
2017-07-01T08:38:49.234Z,95.9
2017-07-01T08:39:51.643Z,95.8
2017-07-01T08:40:53.710Z,96
2017-07-01T08:41:55.777Z,96
2017-07-01T08:42:57.859Z,95.9
2017-07-01T08:43:59.919Z,95.9
2017-07-01T08:45:02.021Z,95.9
2017-07-01T08:46:04.775Z,95.9
2017-07-01T08:47:06.841Z,95.9
2017-07-01T08:48:08.910Z,95.9
2017-07-01T08:49:10.970Z,95.9
2017-07-01T08:50:13.389Z,95.9
2017-07-01T08:51:15.461Z,95.9
2017-07-01T08:52:17.516Z,96
2017-07-01T08:53:19.592Z,95.9
2017-07-01T08:54:21.675Z,95.9
2017-07-01T08:55:24.076Z,95.9
2017-07-01T08:56:26.145Z,95.9
2017-07-01T08:57:28.220Z,95.9
2017-07-01T08:58:30.298Z,96
2017-07-01T08:59:32.344Z,96
2017-07-01T09:00:34.419Z,96
2017-07-01T09:01:36.833Z,95.9
2017-07-01T09:02:38.906Z,96
2017-07-01T09:03:41.306Z,95.9
2017-07-01T09:04:43.363Z,95.8
2017-07-01T09:05:45.429Z,95.7
2017-07-01T09:06:47.503Z,95.8
2017-07-01T09:07:49.603Z,95.7
2017-07-01T09:08:51.663Z,95.8
2017-07-01T09:09:53.726Z,95.7
2017-07-01T09:10:55.802Z,95.5
2017-07-01T09:11:57.871Z,95.5
2017-07-01T09:12:59.930Z,95.7
2017-07-01T09:14:02.016Z,95.8
2017-07-01T09:15:04.093Z,95.9
2017-07-01T09:16:06.179Z,95.8
2017-07-01T09:17:08.583Z,95.7
2017-07-01T09:18:10.659Z,95.8
2017-07-01T09:19:12.741Z,95.9
2017-07-01T09:20:14.803Z,96
2017-07-01T09:21:17.575Z,96
2017-07-01T09:22:19.644Z,96
2017-07-01T09:23:22.169Z,95.8
2017-07-01T09:24:24.613Z,95.8
2017-07-01T09:25:27.015Z,96
2017-07-01T09:26:29.180Z,96
2017-07-01T09:27:31.247Z,96
2017-07-01T09:28:33.323Z,95.8
2017-07-01T09:29:35.506Z,95.7
2017-07-01T09:30:38.099Z,95.7
2017-07-01T09:31:40.167Z,95.8
2017-07-01T09:32:42.223Z,96
2017-07-01T09:33:44.634Z,96.1
2017-07-01T09:34:46.716Z,96.1
2017-07-01T09:35:48.795Z,96.1
2017-07-01T09:36:50.904Z,96.1
2017-07-01T09:37:52.964Z,96.1
2017-07-01T09:38:55.049Z,95.8
2017-07-01T09:39:57.093Z,95.7
2017-07-01T09:40:59.168Z,95.7
2017-07-01T09:42:01.246Z,96.1
2017-07-01T09:43:03.308Z,96
2017-07-01T09:44:05.382Z,95.8
2017-07-01T09:45:07.476Z,95.8
2017-07-01T09:46:09.898Z,95.8
2017-07-01T09:47:11.966Z,95.9
2017-07-01T09:48:14.037Z,95.9
2017-07-01T09:49:16.100Z,95.9
2017-07-01T09:50:18.162Z,95.8
2017-07-01T09:51:20.256Z,95.6
2017-07-01T09:52:22.322Z,95.5
2017-07-01T09:53:24.392Z,95.7
2017-07-01T09:54:26.467Z,95.8
2017-07-01T09:55:28.535Z,96.1
2017-07-01T09:56:30.594Z,96.1
2017-07-01T09:57:32.719Z,96.1
2017-07-01T09:58:34.781Z,96.1
2017-07-01T09:59:36.868Z,96.1
2017-07-01T10:00:38.931Z,96.1
2017-07-01T10:01:41.006Z,96.1
2017-07-01T10:02:43.070Z,96.3
2017-07-01T10:03:45.153Z,96.4
2017-07-01T10:04:47.215Z,96.2
2017-07-01T10:05:49.303Z,96.2
2017-07-01T10:06:51.369Z,96.2
2017-07-01T10:07:53.436Z,96.3
2017-07-01T10:08:55.500Z,96.3
2017-07-01T10:09:57.574Z,96.3
2017-07-01T10:10:59.682Z,96.3
2017-07-01T10:12:02.130Z,96.3
2017-07-01T10:13:04.415Z,96.3
2017-07-01T10:14:06.493Z,96.3
2017-07-01T10:15:08.552Z,96.3
2017-07-01T10:16:10.681Z,96.3
2017-07-01T10:17:12.744Z,96.3
2017-07-01T10:18:14.812Z,96.4
2017-07-01T10:19:16.897Z,96.3
2017-07-01T10:20:18.949Z,96.2
2017-07-01T10:21:21.013Z,96.1
2017-07-01T10:22:23.100Z,95.9
2017-07-01T10:23:25.174Z,95.9
2017-07-01T10:24:27.244Z,95.8
2017-07-01T10:25:29.315Z,95.9
2017-07-01T10:26:31.380Z,95.7
2017-07-01T10:27:33.462Z,95.9
2017-07-01T10:28:35.550Z,96
2017-07-01T10:29:37.595Z,95.9
2017-07-01T10:30:39.708Z,96.1
2017-07-01T10:31:41.809Z,96.4
2017-07-01T10:32:43.879Z,96.1
2017-07-01T10:33:45.954Z,96
2017-07-01T10:34:48.021Z,96
2017-07-01T10:35:50.097Z,95.9
2017-07-01T10:36:52.156Z,96.1
2017-07-01T10:37:54.557Z,96.3
2017-07-01T10:38:56.637Z,96.4
2017-07-01T10:39:58.698Z,96.4
2017-07-01T10:41:01.443Z,96.4
2017-07-01T10:42:03.523Z,95.9
2017-07-01T10:43:05.930Z,96
2017-07-01T10:44:08.020Z,96.1
2017-07-01T10:45:10.784Z,96.4
2017-07-01T10:46:12.865Z,96.4
2017-07-01T10:47:14.937Z,96.4
2017-07-01T10:48:17.366Z,96.3
2017-07-01T10:49:19.433Z,96.1
2017-07-01T10:50:21.881Z,96
2017-07-01T10:51:23.951Z,95.9
2017-07-01T10:52:26.029Z,95.8
2017-07-01T10:53:28.100Z,95.8
2017-07-01T10:54:30.177Z,95.8
2017-07-01T10:55:32.229Z,95.8
2017-07-01T10:56:34.300Z,95.8
2017-07-01T10:57:37.067Z,95.8
2017-07-01T10:58:39.127Z,95.6
2017-07-01T10:59:41.192Z,95.6
2017-07-01T11:00:43.609Z,95.8
2017-07-01T11:01:45.666Z,95.8
2017-07-01T11:02:47.773Z,95.8
2017-07-01T11:03:49.834Z,95.8
2017-07-01T11:04:51.897Z,95.7
2017-07-01T11:05:53.977Z,95.7
2017-07-01T11:06:56.050Z,95.6
2017-07-01T11:07:58.137Z,95.7
2017-07-01T11:09:00.208Z,95.7
2017-07-01T11:10:02.252Z,95.8
2017-07-01T11:11:04.340Z,95.7
2017-07-01T11:12:06.736Z,95.6
2017-07-01T11:13:08.812Z,95.6
2017-07-01T11:14:10.877Z,95.5
2017-07-01T11:15:12.960Z,95.2
2017-07-01T11:16:15.063Z,95
2017-07-01T11:17:17.123Z,94.9
2017-07-01T11:18:19.535Z,94.9
2017-07-01T11:19:21.671Z,95
2017-07-01T11:20:23.726Z,94.9
2017-07-01T11:21:25.802Z,95.1
2017-07-01T11:22:27.870Z,95.5
2017-07-01T11:23:29.936Z,95.7
2017-07-01T11:24:32.004Z,96
2017-07-01T11:25:34.413Z,96.1
2017-07-01T11:26:36.485Z,96
2017-07-01T11:27:38.570Z,96.1
2017-07-01T11:28:40.620Z,96.2
2017-07-01T11:29:43.057Z,96.2
2017-07-01T11:30:45.127Z,96.1
2017-07-01T11:31:47.217Z,96
2017-07-01T11:32:49.292Z,95.9
2017-07-01T11:33:51.361Z,95.8
2017-07-01T11:34:53.442Z,95.8
2017-07-01T11:35:55.503Z,95.9
2017-07-01T11:36:57.572Z,96
2017-07-01T11:37:59.673Z,95.9
2017-07-01T11:39:02.074Z,96
2017-07-01T11:40:04.157Z,96
2017-07-01T11:41:06.226Z,96.1
2017-07-01T11:42:08.293Z,96.1
2017-07-01T11:43:10.387Z,96.1
2017-07-01T11:44:12.448Z,96
2017-07-01T11:45:14.851Z,95.9
2017-07-01T11:46:16.922Z,95.7
2017-07-01T11:47:19.047Z,95.6
2017-07-01T11:48:21.114Z,95.5
2017-07-01T11:49:23.184Z,95.5
2017-07-01T11:50:25.271Z,95.4
2017-07-01T11:51:27.343Z,95.3
2017-07-01T11:52:29.747Z,95.1
2017-07-01T11:53:31.825Z,94.8
2017-07-01T11:54:34.225Z,94.7
2017-07-01T11:55:36.302Z,94.8
2017-07-01T11:56:38.355Z,94.7
2017-07-01T11:57:40.436Z,94.9
2017-07-01T11:58:42.854Z,95.1
2017-07-01T11:59:45.600Z,95.1
2017-07-01T12:00:47.667Z,95.3
2017-07-01T12:01:49.757Z,95.4
2017-07-01T12:02:51.812Z,95.6
2017-07-01T12:03:53.877Z,95.8
2017-07-01T12:04:56.295Z,95.6
2017-07-01T12:05:58.363Z,95.7
2017-07-01T12:07:00.447Z,95.6
2017-07-01T12:08:02.516Z,95.7
2017-07-01T12:09:04.594Z,95.4
2017-07-01T12:10:06.669Z,95.4
2017-07-01T12:11:08.717Z,95.2
2017-07-01T12:12:10.804Z,95.2
2017-07-01T12:13:12.872Z,95.3
2017-07-01T12:14:15.287Z,95.5
2017-07-01T12:15:17.353Z,95.5
2017-07-01T12:16:19.418Z,95.3
2017-07-01T12:17:21.481Z,95.2
2017-07-01T12:18:23.580Z,95
2017-07-01T12:19:25.643Z,94.9
2017-07-01T12:20:27.710Z,94.8
2017-07-01T12:21:29.773Z,94.8
2017-07-01T12:22:31.836Z,94.5
2017-07-01T12:23:33.913Z,94.5
2017-07-01T12:24:35.982Z,94.5
2017-07-01T12:25:38.042Z,94.6
2017-07-01T12:26:40.125Z,94.8
2017-07-01T12:27:42.546Z,94.7
2017-07-01T12:28:44.650Z,94.6
2017-07-01T12:29:46.730Z,94.7
2017-07-01T12:30:48.802Z,94.9
2017-07-01T12:31:51.220Z,95.1
2017-07-01T12:32:53.268Z,95.2
2017-07-01T12:33:55.355Z,95.1
2017-07-01T12:34:57.760Z,95.1
2017-07-01T12:35:59.823Z,95.2
2017-07-01T12:37:01.917Z,95.4
2017-07-01T12:38:03.989Z,95.5
2017-07-01T12:39:06.058Z,95.4
2017-07-01T12:40:08.144Z,95.5
2017-07-01T12:41:10.546Z,95.3
2017-07-01T12:42:12.621Z,95.2
2017-07-01T12:43:14.690Z,95.2
2017-07-01T12:44:16.763Z,95.1
2017-07-01T12:45:19.183Z,95.1
2017-07-01T12:46:21.246Z,95.1
2017-07-01T12:47:23.326Z,94.9
2017-07-01T12:48:25.398Z,94.9
2017-07-01T12:49:27.810Z,94.9
2017-07-01T12:50:29.890Z,94.9
2017-07-01T12:51:31.944Z,94.8
2017-07-01T12:52:34.024Z,94.8
2017-07-01T12:53:36.450Z,94.7
2017-07-01T12:54:38.516Z,94.9
2017-07-01T12:55:40.582Z,95
2017-07-01T12:56:43.001Z,94.9
2017-07-01T12:57:45.061Z,94.9
2017-07-01T12:58:47.172Z,94.8
2017-07-01T12:59:49.234Z,94.7
2017-07-01T13:00:51.318Z,94.7
2017-07-01T13:01:53.386Z,94.7
2017-07-01T13:02:55.495Z,94.7
2017-07-01T13:03:57.580Z,94.8
2017-07-01T13:04:59.656Z,94.8
2017-07-01T13:06:01.720Z,94.8
2017-07-01T13:07:03.801Z,94.8
2017-07-01T13:08:05.873Z,94.9
2017-07-01T13:09:08.645Z,95
2017-07-01T13:10:10.709Z,95
2017-07-01T13:11:12.780Z,95
2017-07-01T13:12:15.182Z,94.9
2017-07-01T13:13:17.275Z,95
2017-07-01T13:14:19.334Z,94.9
2017-07-01T13:15:21.416Z,95
2017-07-01T13:16:23.482Z,95.2
2017-07-01T13:17:25.894Z,95.1
2017-07-01T13:18:27.954Z,95.1
2017-07-01T13:19:30.031Z,95.1
2017-07-01T13:20:32.433Z,94.8
2017-07-01T13:21:34.508Z,94.6
2017-07-01T13:22:36.574Z,94.6
2017-07-01T13:23:38.658Z,94.6
2017-07-01T13:24:40.713Z,94.6
2017-07-01T13:25:42.788Z,94.6
2017-07-01T13:26:44.859Z,94.7
2017-07-01T13:27:47.274Z,94.6
2017-07-01T13:28:49.340Z,94.7
2017-07-01T13:29:51.743Z,94.6
2017-07-01T13:30:53.816Z,94.6
2017-07-01T13:31:56.229Z,94.6
2017-07-01T13:32:58.287Z,94.7
2017-07-01T13:34:00.366Z,94.7
2017-07-01T13:35:02.436Z,94.7
2017-07-01T13:36:05.201Z,94.6
2017-07-01T13:37:07.274Z,94.7
2017-07-01T13:38:09.345Z,94.8
2017-07-01T13:39:11.745Z,94.8
2017-07-01T13:40:13.854Z,94.7
2017-07-01T13:41:16.288Z,94.8
2017-07-01T13:42:18.341Z,94.8
2017-07-01T13:43:20.409Z,94.8
2017-07-01T13:44:22.479Z,94.9
2017-07-01T13:45:24.549Z,94.9
2017-07-01T13:46:26.949Z,94.9
2017-07-01T13:47:29.020Z,94.9
2017-07-01T13:48:31.449Z,95
2017-07-01T13:49:33.509Z,95
2017-07-01T13:50:35.567Z,95.1
2017-07-01T13:51:37.979Z,95.1